Time;durP1;ratioP1;P1;durP2;ratioP2;P2;SDS_P1;SDS_P2;PMS_P1;PMS_P2;Temp;Humidity;BMP_temperature;BMP_pressure;BME280_temperature;BME280_humidity;BME280_pressure;Samples;Min_cycle;Max_cycle;Signal;HPM_P1;HPM_P2
2021/03/02 05:01:08;;;;;;;;;;;3.80;99.90;;;;;;5736160;22;19925;-62
2021/03/02 05:03:34;;;;;;;;;;;3.80;99.90;;;;;;5056496;28;20284;-61
2021/03/02 05:06:00;;;;;;;;;;;3.70;99.90;;;;;;5044984;28;19925;-61
2021/03/02 05:08:26;;;;;;;;;;;3.60;99.90;;;;;;5077709;22;19929;-59
2021/03/02 05:10:52;;;;;;;;;;;3.50;99.90;;;;;;5041574;28;19925;-59
2021/03/02 05:13:18;;;;;;;;;;;3.50;99.90;;;;;;5040842;28;20337;-60
2021/03/02 05:15:44;;;;;;;;;;;3.50;99.90;;;;;;5037477;28;20367;-59
2021/03/02 05:18:12;;;;;;;;;;;3.50;99.90;;;;;;5036826;28;19929;-59
2021/03/02 05:20:38;;;;;;;;;;;3.40;99.90;;;;;;5036397;28;19925;-59
2021/03/02 05:23:05;;;;;;;;;;;3.40;99.90;;;;;;5036388;28;19925;-59
2021/03/02 05:25:31;;;;;;;;;;;3.30;99.90;;;;;;5036186;28;20403;-59
2021/03/02 05:27:57;;;;;;;;;;;3.30;99.90;;;;;;5036274;28;19925;-59
2021/03/02 05:30:24;;;;;;;;;;;3.30;99.90;;;;;;5039308;28;19925;-59
2021/03/02 05:32:50;;;;;;;;;;;3.30;99.90;;;;;;5053927;28;19932;-59
2021/03/02 05:35:17;;;;;;;;;;;3.30;99.90;;;;;;5054213;28;19925;-59
2021/03/02 05:37:43;;;;;;;;;;;3.30;99.90;;;;;;5052672;28;19939;-59
2021/03/02 05:40:09;;;;;;;;;;;3.30;99.90;;;;;;5037245;28;19951;-59
2021/03/02 05:42:35;;;;;;;;;;;3.20;99.90;;;;;;5035982;28;19928;-60
2021/03/02 05:45:02;;;;;;;;;;;3.20;99.90;;;;;;5036418;28;20376;-60
2021/03/02 05:47:28;;;;;;;;;;;3.20;99.90;;;;;;5036565;28;19976;-60
2021/03/02 05:49:55;;;;;;;;;;;3.20;99.90;;;;;;5036503;28;20295;-59
2021/03/02 05:52:22;;;;;;;;;;;3.10;99.90;;;;;;5036773;28;19925;-63
2021/03/02 05:54:50;;;;;;;;;;;3.00;99.90;;;;;;5036467;28;19925;-62
2021/03/02 05:57:16;;;;;;;;;;;3.10;99.90;;;;;;5036630;28;19936;-63
2021/03/02 05:59:43;;;;;;;;;;;3.20;99.90;;;;;;5036100;28;20339;-63
2021/03/02 06:02:09;;;;;;;;;;;3.20;99.90;;;;;;5037077;28;19926;-63
2021/03/02 06:04:35;;;;;;;;;;;3.20;99.90;;;;;;5035396;28;19925;-62
2021/03/02 06:07:01;;;;;;;;;;;3.20;99.90;;;;;;5035425;28;20008;-60
2021/03/02 06:09:28;;;;;;;;;;;3.20;99.90;;;;;;5034775;28;20067;-59
2021/03/02 06:12:00;;;;;;;;;;;3.30;99.90;;;;;;5035184;28;19925;-60
2021/03/02 06:14:28;;;;;;;;;;;3.30;99.90;;;;;;5035397;28;19929;-60
2021/03/02 06:16:55;;;;;;;;;;;3.20;99.90;;;;;;5035220;28;20093;-60
2021/03/02 06:19:35;;;;;;;;;;;3.20;99.90;;;;;;5035007;28;19925;-60
2021/03/02 06:22:01;;;;;;;;;;;3.10;99.90;;;;;;5035581;28;19925;-60
2021/03/02 06:24:34;;;;;;;;;;;3.20;99.90;;;;;;5045990;28;19932;-60
2021/03/02 06:27:10;;;;;;;;;;;3.10;99.90;;;;;;5050193;28;19932;-60
2021/03/02 06:29:37;;;;;;;;;;;3.10;99.90;;;;;;5043358;28;19929;-60
2021/03/02 06:32:03;;;;;;;;;;;3.10;99.90;;;;;;5035441;28;19931;-60
2021/03/02 06:34:29;;;;;;;;;;;3.10;99.90;;;;;;5035087;28;19925;-60
2021/03/02 06:37:00;;;;;;;;;;;3.20;99.90;;;;;;5034869;28;19975;-59
2021/03/02 06:39:28;;;;;;;;;;;3.20;99.90;;;;;;5034994;28;19937;-59
2021/03/02 06:42:10;;;;;;;;;;;3.30;99.90;;;;;;5035138;28;19925;-59
2021/03/02 06:44:36;;;;;;;;;;;3.30;99.90;;;;;;5034781;28;19929;-59
2021/03/02 06:47:02;;;;;;;;;;;3.40;99.90;;;;;;5034786;28;19932;-60
2021/03/02 06:49:38;;;;;;;;;;;3.50;99.90;;;;;;5034691;28;20281;-59
2021/03/02 06:52:11;;;;;;;;;;;3.50;99.90;;;;;;5034998;28;19932;-59
2021/03/02 06:54:37;;;;;;;;;;;3.60;99.90;;;;;;5034184;28;19932;-59
2021/03/02 06:57:03;;;;;;;;;;;3.60;99.90;;;;;;5034644;28;19932;-59
2021/03/02 06:59:30;;;;;;;;;;;3.60;99.90;;;;;;5035028;28;19975;-58
2021/03/02 07:01:56;;;;;;;;;;;3.70;99.90;;;;;;5035079;28;20306;-58
2021/03/02 07:04:23;;;;;;;;;;;3.80;99.90;;;;;;5035630;28;19925;-60
2021/03/02 07:06:51;;;;;;;;;;;4.60;99.90;;;;;;5035775;28;19929;-59
2021/03/02 07:09:18;;;;;;;;;;;5.50;99.90;;;;;;5035551;28;19925;-60
2021/03/02 07:11:45;;;;;;;;;;;6.50;99.90;;;;;;5036601;28;20414;-61
2021/03/02 07:14:12;;;;;;;;;;;7.50;99.90;;;;;;5035163;28;19925;-60
2021/03/02 07:16:40;;;;;;;;;;;8.50;99.90;;;;;;5035067;28;19971;-60
2021/03/02 07:19:06;;;;;;;;;;;9.30;99.90;;;;;;5034559;28;20325;-60
2021/03/02 07:21:36;;;;;;;;;;;9.90;99.90;;;;;;5034635;28;19925;-60
2021/03/02 07:24:04;;;;;;;;;;;10.60;99.90;;;;;;5034621;28;19968;-60
2021/03/02 07:26:31;;;;;;;;;;;11.20;99.90;;;;;;5034881;28;19924;-60
2021/03/02 07:28:57;;;;;;;;;;;11.70;99.90;;;;;;5035256;28;19932;-60
2021/03/02 07:31:23;;;;;;;;;;;12.10;99.10;;;;;;5041747;28;19925;-59
2021/03/02 07:33:50;;;;;;;;;;;12.60;97.70;;;;;;5042298;28;19925;-59
2021/03/02 07:36:16;;;;;;;;;;;13.20;96.70;;;;;;5040952;28;19976;-59
2021/03/02 07:38:42;;;;;;;;;;;13.80;94.50;;;;;;5039852;28;19948;-60
2021/03/02 07:41:09;;;;;;;;;;;14.20;92.30;;;;;;5041399;28;19932;-61
2021/03/02 07:43:35;;;;;;;;;;;14.60;91.50;;;;;;5037257;28;19925;-60
2021/03/02 07:46:02;;;;;;;;;;;15.10;88.70;;;;;;5037077;28;20296;-60
2021/03/02 07:48:29;;;;;;;;;;;15.40;92.70;;;;;;5036622;28;19929;-60
2021/03/02 07:51:15;;;;;;;;;;;16.00;94.80;;;;;;5036216;28;19925;-60
2021/03/02 07:53:42;;;;;;;;;;;16.70;90.80;;;;;;5035318;28;19929;-60
2021/03/02 07:56:32;;;;;;;;;;;16.90;80.90;;;;;;5035098;28;20046;-60
2021/03/02 07:59:17;;;;;;;;;;;16.90;79.40;;;;;;5019689;28;20406;-61
2021/03/02 08:01:43;;;;;;;;;;;17.30;77.10;;;;;;5035266;28;19972;-61
2021/03/02 08:04:26;;;;;;;;;;;17.50;76.40;;;;;;5034774;28;20380;-60
2021/03/02 08:06:54;;;;;;;;;;;17.50;74.60;;;;;;5037845;28;19925;-59
2021/03/02 08:09:28;;;;;;;;;;;18.10;72.90;;;;;;5038543;28;19929;-60
2021/03/02 08:11:55;;;;;;;;;;;18.00;71.80;;;;;;5038522;28;19953;-59
2021/03/02 08:14:30;;;;;;;;;;;18.20;71.30;;;;;;5039087;28;19933;-60
2021/03/02 08:16:57;;;;;;;;;;;18.40;69.80;;;;;;5038845;28;19932;-60
2021/03/02 08:19:43;;;;;;;;;;;18.40;68.80;;;;;;5038435;28;19925;-60
2021/03/02 08:22:26;;;;;;;;;;;18.30;68.40;;;;;;5044425;28;19925;-60
2021/03/02 08:24:53;;;;;;;;;;;17.70;69.70;;;;;;5038038;28;19925;-60
2021/03/02 08:27:35;;;;;;;;;;;18.10;70.10;;;;;;5037942;28;19925;-60
2021/03/02 08:30:01;;;;;;;;;;;18.30;69.10;;;;;;5037717;28;20027;-61
2021/03/02 08:32:28;;;;;;;;;;;17.90;70.00;;;;;;5037696;28;20308;-61
2021/03/02 08:34:54;;;;;;;;;;;18.00;70.60;;;;;;5037782;28;20380;-61
2021/03/02 08:37:36;;;;;;;;;;;18.20;70.50;;;;;;5037328;28;19975;-61
2021/03/02 08:40:04;;;;;;;;;;;18.30;70.50;;;;;;5038052;28;19929;-61
2021/03/02 08:42:30;;;;;;;;;;;18.30;70.30;;;;;;5037638;28;19925;-60
2021/03/02 08:45:03;;;;;;;;;;;18.50;70.20;;;;;;5037830;28;19979;-59
2021/03/02 08:47:29;;;;;;;;;;;17.90;69.80;;;;;;5039075;28;19932;-59
2021/03/02 08:49:55;;;;;;;;;;;17.20;71.90;;;;;;5037900;28;19925;-59
2021/03/02 08:52:21;;;;;;;;;;;17.40;72.70;;;;;;5039866;28;19932;-59
2021/03/02 08:54:47;;;;;;;;;;;17.70;72.20;;;;;;5048804;28;19970;-59
2021/03/02 08:57:14;;;;;;;;;;;17.90;73.30;;;;;;5045069;28;19925;-60
2021/03/02 08:59:40;;;;;;;;;;;18.50;70.20;;;;;;5037802;28;20279;-61
2021/03/02 09:02:06;;;;;;;;;;;18.80;69.70;;;;;;5037841;28;20293;-60
2021/03/02 09:04:33;;;;;;;;;;;19.20;70.80;;;;;;5037417;28;20315;-61
2021/03/02 09:06:59;;;;;;;;;;;19.50;67.80;;;;;;5037263;28;19929;-61
2021/03/02 09:09:26;;;;;;;;;;;19.50;67.50;;;;;;5036817;28;19932;-61
2021/03/02 09:11:53;;;;;;;;;;;19.40;68.10;;;;;;5037228;28;19932;-60
2021/03/02 09:14:21;;;;;;;;;;;19.90;67.40;;;;;;5037023;28;19925;-61
2021/03/02 09:16:47;;;;;;;;;;;20.50;66.60;;;;;;5036450;28;19925;-60
2021/03/02 09:19:21;;;;;;;;;;;20.90;65.90;;;;;;5035903;28;19932;-61
2021/03/02 09:21:51;;;;;;;;;;;21.40;62.30;;;;;;5036238;28;19962;-61
2021/03/02 09:24:18;;;;;;;;;;;21.40;63.00;;;;;;5036501;28;19925;-61
2021/03/02 09:26:57;;;;;;;;;;;21.70;60.60;;;;;;5037396;28;19925;-61
2021/03/02 09:29:25;;;;;;;;;;;22.00;62.00;;;;;;5036502;28;20269;-61
2021/03/02 09:31:51;;;;;;;;;;;22.30;60.10;;;;;;5036152;28;19929;-60
2021/03/02 09:34:18;;;;;;;;;;;22.20;58.50;;;;;;5036509;28;19966;-61
2021/03/02 09:36:44;;;;;;;;;;;22.00;57.80;;;;;;5036648;28;19925;-61
2021/03/02 09:39:17;;;;;;;;;;;21.20;58.50;;;;;;5036068;28;19952;-61
2021/03/02 09:41:45;;;;;;;;;;;21.30;58.80;;;;;;5036087;28;19925;-61
2021/03/02 09:44:18;;;;;;;;;;;21.40;58.70;;;;;;5036387;28;19975;-61
2021/03/02 09:46:45;;;;;;;;;;;21.00;58.40;;;;;;5036314;28;20292;-61
2021/03/02 09:49:11;;;;;;;;;;;20.50;59.30;;;;;;5036196;28;19925;-59
2021/03/02 09:51:43;;;;;;;;;;;20.60;59.90;;;;;;5035998;28;19925;-61
2021/03/02 09:54:13;;;;;;;;;;;21.20;59.40;;;;;;5035865;28;19971;-61
2021/03/02 09:56:39;;;;;;;;;;;21.60;60.10;;;;;;5035872;28;19932;-61
2021/03/02 09:59:06;;;;;;;;;;;22.40;58.20;;;;;;5035692;28;19925;-61
2021/03/02 10:01:33;;;;;;;;;;;20.80;59.40;;;;;;5035532;28;20028;-61
2021/03/02 10:04:06;;;;;;;;;;;21.80;58.50;;;;;;5035732;28;19925;-61
2021/03/02 10:06:32;;;;;;;;;;;22.60;56.80;;;;;;5035701;28;19975;-61
2021/03/02 10:08:58;;;;;;;;;;;22.30;57.30;;;;;;5035477;28;19925;-61
2021/03/02 10:11:24;;;;;;;;;;;22.00;57.70;;;;;;5035381;28;19932;-61
2021/03/02 10:13:51;;;;;;;;;;;23.00;56.20;;;;;;5035454;28;19925;-61
2021/03/02 10:16:18;;;;;;;;;;;23.50;56.50;;;;;;5038409;28;19929;-61
2021/03/02 10:18:46;;;;;;;;;;;24.10;55.10;;;;;;5041968;28;19929;-61
2021/03/02 10:21:13;;;;;;;;;;;24.60;54.20;;;;;;5035127;28;19932;-61
2021/03/02 10:23:40;;;;;;;;;;;24.50;53.20;;;;;;5036351;28;19940;-61
2021/03/02 10:26:06;;;;;;;;;;;24.60;52.50;;;;;;5038134;28;19929;-61
2021/03/02 10:28:33;;;;;;;;;;;24.30;53.00;;;;;;5041106;28;19925;-61
2021/03/02 10:30:59;;;;;;;;;;;24.50;53.10;;;;;;5040342;28;19932;-60
2021/03/02 10:33:25;;;;;;;;;;;24.40;52.50;;;;;;5037429;28;20266;-60
2021/03/02 10:35:51;;;;;;;;;;;23.70;55.70;;;;;;5036642;28;19925;-60
2021/03/02 10:38:18;;;;;;;;;;;24.10;52.90;;;;;;5037669;28;19925;-60
2021/03/02 10:40:44;;;;;;;;;;;24.70;51.60;;;;;;5039536;28;19932;-60
2021/03/02 10:43:10;;;;;;;;;;;24.70;53.60;;;;;;5037636;28;19926;-60
2021/03/02 10:45:36;;;;;;;;;;;24.80;51.60;;;;;;5035695;28;19936;-61
2021/03/02 10:48:03;;;;;;;;;;;25.00;53.30;;;;;;5035072;28;19925;-60
2021/03/02 10:50:29;;;;;;;;;;;24.40;52.10;;;;;;5034789;28;19933;-60
2021/03/02 10:52:56;;;;;;;;;;;25.00;50.80;;;;;;5034852;28;19925;-60
2021/03/02 10:55:23;;;;;;;;;;;25.00;50.30;;;;;;5034899;28;19925;-61
2021/03/02 10:57:49;;;;;;;;;;;25.10;52.00;;;;;;5034428;28;19925;-60
2021/03/02 11:00:16;;;;;;;;;;;23.90;51.50;;;;;;5034342;28;19929;-60
2021/03/02 11:02:42;;;;;;;;;;;24.70;51.60;;;;;;5034550;28;19925;-60
2021/03/02 11:05:08;;;;;;;;;;;25.20;49.70;;;;;;5034588;28;19925;-60
2021/03/02 11:07:35;;;;;;;;;;;24.10;51.00;;;;;;5034501;28;19925;-60
2021/03/02 11:10:01;;;;;;;;;;;23.70;53.40;;;;;;5034128;28;19925;-60
2021/03/02 11:12:27;;;;;;;;;;;23.00;54.50;;;;;;5042211;22;20390;-60
2021/03/02 11:14:53;;;;;;;;;;;22.50;53.10;;;;;;5034666;28;19925;-60
2021/03/02 11:17:19;;;;;;;;;;;21.40;55.90;;;;;;5034258;28;19925;-60
2021/03/02 11:19:47;;;;;;;;;;;21.60;58.50;;;;;;5034133;28;20402;-60
2021/03/02 11:22:13;;;;;;;;;;;21.90;54.00;;;;;;5034476;28;19936;-60
2021/03/02 11:24:40;;;;;;;;;;;21.70;54.90;;;;;;5034502;28;19925;-60
2021/03/02 11:27:06;;;;;;;;;;;21.40;55.40;;;;;;5035143;28;19975;-60
2021/03/02 11:29:35;;;;;;;;;;;20.40;55.20;;;;;;5034302;28;19940;-59
2021/03/02 11:32:01;;;;;;;;;;;20.40;60.00;;;;;;5034273;28;19960;-61
2021/03/02 11:34:27;;;;;;;;;;;19.50;59.40;;;;;;5034485;28;20293;-60
2021/03/02 11:36:53;;;;;;;;;;;19.30;60.60;;;;;;5033798;28;20380;-60
2021/03/02 11:39:19;;;;;;;;;;;19.30;62.90;;;;;;5034123;28;19925;-60
2021/03/02 11:41:45;;;;;;;;;;;18.90;60.10;;;;;;5033579;28;19933;-60
2021/03/02 11:44:11;;;;;;;;;;;18.80;62.20;;;;;;5033926;28;19925;-61
2021/03/02 11:46:38;;;;;;;;;;;18.50;61.30;;;;;;5033963;28;20437;-60
2021/03/02 11:49:04;;;;;;;;;;;18.40;67.20;;;;;;5034028;28;19928;-59
2021/03/02 11:51:30;;;;;;;;;;;18.00;61.80;;;;;;5033993;28;19926;-61
2021/03/02 11:53:56;;;;;;;;;;;18.20;68.80;;;;;;5033985;28;19925;-61
2021/03/02 11:56:22;;;;;;;;;;;17.60;63.90;;;;;;5034111;28;19933;-61
2021/03/02 11:58:49;;;;;;;;;;;17.50;64.10;;;;;;5033947;28;19953;-61
2021/03/02 12:01:15;;;;;;;;;;;17.10;64.90;;;;;;5033653;28;20402;-60
2021/03/02 12:03:42;;;;;;;;;;;17.00;66.20;;;;;;5034881;28;19929;-61
2021/03/02 12:06:08;;;;;;;;;;;17.10;69.20;;;;;;5033960;28;20268;-61
2021/03/02 12:08:35;;;;;;;;;;;17.00;75.40;;;;;;5033855;28;19972;-61
2021/03/02 12:11:01;;;;;;;;;;;17.00;69.00;;;;;;5033768;28;19925;-61
2021/03/02 12:13:27;;;;;;;;;;;17.10;68.40;;;;;;5033693;28;19948;-61
2021/03/02 12:15:55;;;;;;;;;;;17.30;72.90;;;;;;5034724;28;19948;-61
2021/03/02 12:18:21;;;;;;;;;;;17.80;76.20;;;;;;5034104;28;20019;-61
2021/03/02 12:20:48;;;;;;;;;;;17.90;71.10;;;;;;5034051;28;19932;-60
2021/03/02 12:23:14;;;;;;;;;;;18.20;70.60;;;;;;5033603;28;20423;-60
2021/03/02 12:25:40;;;;;;;;;;;18.60;67.20;;;;;;5034194;28;19928;-60
2021/03/02 12:28:06;;;;;;;;;;;18.80;66.60;;;;;;5034029;28;19929;-60
2021/03/02 12:30:32;;;;;;;;;;;19.00;68.70;;;;;;5034208;28;19925;-59
2021/03/02 12:33:00;;;;;;;;;;;19.00;65.40;;;;;;5034144;28;20295;-59
2021/03/02 12:35:26;;;;;;;;;;;18.80;62.20;;;;;;5033784;28;19955;-60
2021/03/02 12:37:53;;;;;;;;;;;18.70;64.80;;;;;;5034071;28;20303;-60
2021/03/02 12:40:19;;;;;;;;;;;18.40;63.50;;;;;;5033913;28;19926;-60
2021/03/02 12:42:45;;;;;;;;;;;18.40;64.70;;;;;;5033689;28;19948;-59
2021/03/02 12:45:11;;;;;;;;;;;18.30;64.00;;;;;;5033759;28;19929;-59
2021/03/02 12:47:37;;;;;;;;;;;18.70;67.20;;;;;;5033440;28;20387;-61
2021/03/02 12:50:08;;;;;;;;;;;18.90;66.90;;;;;;5033603;28;19925;-60
2021/03/02 12:52:34;;;;;;;;;;;19.10;64.70;;;;;;5034286;28;19925;-60
2021/03/02 12:55:01;;;;;;;;;;;18.70;67.00;;;;;;5037556;28;19925;-60
2021/03/02 12:57:27;;;;;;;;;;;18.40;65.30;;;;;;5037598;28;19925;-62
2021/03/02 12:59:53;;;;;;;;;;;18.80;64.80;;;;;;5037677;28;19940;-64
2021/03/02 13:02:19;;;;;;;;;;;18.90;61.80;;;;;;5037331;28;19928;-59
2021/03/02 13:04:45;;;;;;;;;;;19.00;63.40;;;;;;5037013;28;19931;-60
2021/03/02 13:07:12;;;;;;;;;;;18.80;63.70;;;;;;5036935;28;19932;-59
2021/03/02 13:09:38;;;;;;;;;;;19.00;63.40;;;;;;5036897;28;19925;-59
2021/03/02 13:12:06;;;;;;;;;;;18.80;63.50;;;;;;5036559;28;19933;-60
2021/03/02 13:14:35;;;;;;;;;;;18.50;62.20;;;;;;5036808;28;19925;-59
2021/03/02 13:17:01;;;;;;;;;;;18.40;64.20;;;;;;5036716;28;19925;-58
2021/03/02 13:19:27;;;;;;;;;;;18.50;65.50;;;;;;5036642;28;19932;-60
2021/03/02 13:21:53;;;;;;;;;;;18.60;60.70;;;;;;5036730;28;19925;-60
2021/03/02 13:24:19;;;;;;;;;;;18.70;59.70;;;;;;5036062;28;20371;-61
2021/03/02 13:26:46;;;;;;;;;;;18.90;64.70;;;;;;5036656;28;19932;-60
2021/03/02 13:29:15;;;;;;;;;;;18.70;67.00;;;;;;5036925;28;19935;-60
2021/03/02 13:31:42;;;;;;;;;;;18.60;63.90;;;;;;5036293;28;19932;-59
2021/03/02 13:34:11;;;;;;;;;;;18.60;62.20;;;;;;5036046;28;19925;-59
2021/03/02 13:36:38;;;;;;;;;;;18.10;64.30;;;;;;5036470;28;19925;-59
2021/03/02 13:39:05;;;;;;;;;;;18.50;66.80;;;;;;5036520;28;20018;-59
2021/03/02 13:41:32;;;;;;;;;;;18.40;61.90;;;;;;5036116;28;19979;-59
2021/03/02 13:43:59;;;;;;;;;;;18.90;66.10;;;;;;5036473;28;19925;-59
2021/03/02 13:46:26;;;;;;;;;;;19.00;65.70;;;;;;5035877;28;20372;-59
2021/03/02 13:48:52;;;;;;;;;;;19.10;64.00;;;;;;5035650;28;19929;-59
2021/03/02 13:51:19;;;;;;;;;;;19.30;66.40;;;;;;5035881;28;20264;-59
2021/03/02 13:53:45;;;;;;;;;;;19.30;62.50;;;;;;5035923;28;19932;-59
2021/03/02 13:56:12;;;;;;;;;;;19.40;61.00;;;;;;5035522;28;20392;-60
2021/03/02 13:58:40;;;;;;;;;;;19.20;61.80;;;;;;5036223;28;19948;-59
2021/03/02 14:01:06;;;;;;;;;;;18.80;66.60;;;;;;5035672;28;20002;-60
2021/03/02 14:03:35;;;;;;;;;;;18.70;63.20;;;;;;5035568;28;19925;-59
2021/03/02 14:06:02;;;;;;;;;;;19.00;66.80;;;;;;5035750;28;19925;-58
2021/03/02 14:08:29;;;;;;;;;;;18.70;64.30;;;;;;5035054;28;20418;-58
2021/03/02 14:10:55;;;;;;;;;;;19.20;67.80;;;;;;5036183;28;19929;-60
2021/03/02 14:13:25;;;;;;;;;;;19.40;63.70;;;;;;5034841;28;19925;-60
2021/03/02 14:15:51;;;;;;;;;;;19.60;62.40;;;;;;5035111;28;20380;-60
2021/03/02 14:18:18;;;;;;;;;;;19.30;60.80;;;;;;5034951;28;20437;-60
2021/03/02 14:20:45;;;;;;;;;;;19.20;63.20;;;;;;5035040;28;19925;-58
2021/03/02 14:23:11;;;;;;;;;;;18.80;59.00;;;;;;5034809;28;19932;-60
2021/03/02 14:25:37;;;;;;;;;;;18.70;66.30;;;;;;5035484;28;19925;-60
2021/03/02 14:28:04;;;;;;;;;;;18.90;59.90;;;;;;5035185;28;19925;-60
2021/03/02 14:30:30;;;;;;;;;;;18.90;59.00;;;;;;5034549;28;19932;-60
2021/03/02 14:32:57;;;;;;;;;;;18.80;62.00;;;;;;5034786;28;19932;-60
2021/03/02 14:35:23;;;;;;;;;;;18.70;62.40;;;;;;5035442;28;20012;-60
2021/03/02 14:37:50;;;;;;;;;;;18.70;60.50;;;;;;5037165;28;20398;-59
2021/03/02 14:40:17;;;;;;;;;;;18.70;60.90;;;;;;5042269;28;19929;-58
2021/03/02 14:42:46;;;;;;;;;;;18.60;59.90;;;;;;5038433;28;19932;-58
2021/03/02 14:45:13;;;;;;;;;;;17.90;59.50;;;;;;5035232;28;19925;-59
2021/03/02 14:47:42;;;;;;;;;;;18.10;64.00;;;;;;5034918;28;19979;-60
2021/03/02 14:50:09;;;;;;;;;;;18.10;59.80;;;;;;5034806;28;19948;-60
2021/03/02 14:52:37;;;;;;;;;;;18.20;59.40;;;;;;5034656;28;19925;-60
2021/03/02 14:55:06;;;;;;;;;;;18.30;58.50;;;;;;5034813;28;19971;-60
2021/03/02 14:57:34;;;;;;;;;;;18.30;59.50;;;;;;5034381;28;20291;-58
2021/03/02 15:00:01;;;;;;;;;;;18.20;60.70;;;;;;5034494;28;19929;-58
2021/03/02 15:02:27;;;;;;;;;;;18.50;60.20;;;;;;5034768;28;19936;-60
2021/03/02 15:04:53;;;;;;;;;;;18.70;59.60;;;;;;5034533;28;19925;-59
2021/03/02 15:07:19;;;;;;;;;;;18.50;57.40;;;;;;5034693;28;20268;-60
2021/03/02 15:09:45;;;;;;;;;;;18.60;59.10;;;;;;5034805;28;19925;-59
2021/03/02 15:12:12;;;;;;;;;;;18.60;58.60;;;;;;5034323;28;19925;-59
2021/03/02 15:14:39;;;;;;;;;;;18.40;58.30;;;;;;5034360;28;19941;-59
2021/03/02 15:17:06;;;;;;;;;;;18.30;60.00;;;;;;5034374;28;19925;-59
2021/03/02 15:19:33;;;;;;;;;;;18.20;59.30;;;;;;5034353;28;19956;-59
2021/03/02 15:22:00;;;;;;;;;;;18.20;59.20;;;;;;5034312;28;19976;-59
2021/03/02 15:24:26;;;;;;;;;;;18.20;58.60;;;;;;5034325;28;19925;-59
2021/03/02 15:26:52;;;;;;;;;;;18.00;58.60;;;;;;5034305;28;19925;-60
2021/03/02 15:29:20;;;;;;;;;;;18.00;58.40;;;;;;5034298;28;19933;-59
2021/03/02 15:31:46;;;;;;;;;;;17.80;58.80;;;;;;5034084;28;19925;-59
2021/03/02 15:34:13;;;;;;;;;;;17.80;58.90;;;;;;5034304;28;20299;-60
2021/03/02 15:36:41;;;;;;;;;;;17.70;59.00;;;;;;5034225;28;19925;-59
2021/03/02 15:39:07;;;;;;;;;;;17.50;60.80;;;;;;5034046;28;19929;-60
2021/03/02 15:41:33;;;;;;;;;;;17.40;59.40;;;;;;5034071;28;19987;-59
2021/03/02 15:44:00;;;;;;;;;;;17.20;57.80;;;;;;5034297;28;20345;-59
2021/03/02 15:46:27;;;;;;;;;;;17.10;59.20;;;;;;5034581;28;19976;-59
2021/03/02 15:48:53;;;;;;;;;;;17.00;58.70;;;;;;5037216;28;19925;-59
2021/03/02 15:51:20;;;;;;;;;;;16.80;59.40;;;;;;5038351;28;19926;-59
2021/03/02 15:53:46;;;;;;;;;;;16.80;61.10;;;;;;5038787;28;20334;-59
2021/03/02 15:56:13;;;;;;;;;;;16.60;61.00;;;;;;5034326;28;19932;-59
2021/03/02 15:58:39;;;;;;;;;;;16.60;61.50;;;;;;5034856;28;19929;-59
2021/03/02 16:01:05;;;;;;;;;;;16.50;63.50;;;;;;5033975;28;19945;-59
2021/03/02 16:03:33;;;;;;;;;;;16.40;64.50;;;;;;5033748;28;19925;-59
2021/03/02 16:06:02;;;;;;;;;;;16.40;66.70;;;;;;5033927;28;19926;-59
2021/03/02 16:08:29;;;;;;;;;;;16.30;65.10;;;;;;5034042;28;19929;-59
2021/03/02 16:10:59;;;;;;;;;;;16.20;68.60;;;;;;5034647;28;19925;-59
2021/03/02 16:13:26;;;;;;;;;;;16.10;67.30;;;;;;5045583;28;19926;-59
2021/03/02 16:15:52;;;;;;;;;;;16.10;68.60;;;;;;5044085;28;19996;-60
2021/03/02 16:18:21;;;;;;;;;;;16.10;69.20;;;;;;5035461;28;19929;-59
2021/03/02 16:20:50;;;;;;;;;;;16.00;70.40;;;;;;5033996;28;19936;-59
2021/03/02 16:23:17;;;;;;;;;;;15.90;70.70;;;;;;5033877;28;19933;-59
2021/03/02 16:25:45;;;;;;;;;;;15.90;72.90;;;;;;5033908;28;19948;-59
2021/03/02 16:28:11;;;;;;;;;;;15.80;72.80;;;;;;5035330;28;19925;-59
2021/03/02 16:30:37;;;;;;;;;;;15.80;73.70;;;;;;5037540;28;20043;-59
2021/03/02 16:33:05;;;;;;;;;;;15.60;74.20;;;;;;5038029;28;20288;-59
2021/03/02 16:35:31;;;;;;;;;;;15.50;75.40;;;;;;5037453;28;19925;-60
2021/03/02 16:37:58;;;;;;;;;;;15.50;76.10;;;;;;5037959;28;19930;-59
2021/03/02 16:40:25;;;;;;;;;;;15.40;76.30;;;;;;5037365;28;19925;-59
2021/03/02 16:42:51;;;;;;;;;;;15.30;76.80;;;;;;5037743;28;19925;-59
2021/03/02 16:45:19;;;;;;;;;;;15.20;77.40;;;;;;5037389;28;19929;-60
2021/03/02 16:47:45;;;;;;;;;;;15.10;76.80;;;;;;5037570;28;20402;-60
2021/03/02 16:50:12;;;;;;;;;;;15.00;76.80;;;;;;5037454;28;19933;-60
2021/03/02 16:52:39;;;;;;;;;;;14.90;77.10;;;;;;5037202;28;19929;-60
2021/03/02 16:55:07;;;;;;;;;;;14.90;77.80;;;;;;5037523;28;19948;-60
2021/03/02 16:57:36;;;;;;;;;;;14.70;78.30;;;;;;5037610;28;19926;-60
2021/03/02 17:00:04;;;;;;;;;;;14.70;78.60;;;;;;5037738;28;19947;-60
2021/03/02 17:02:34;;;;;;;;;;;14.50;78.10;;;;;;5038006;28;19948;-60
2021/03/02 17:05:02;;;;;;;;;;;14.40;78.30;;;;;;5037580;28;19925;-60
2021/03/02 17:07:28;;;;;;;;;;;14.20;78.40;;;;;;5037133;28;19933;-59
2021/03/02 17:09:55;;;;;;;;;;;14.10;79.00;;;;;;5036998;28;19925;-59
2021/03/02 17:12:22;;;;;;;;;;;14.00;80.00;;;;;;5036627;28;20407;-60
2021/03/02 17:14:50;;;;;;;;;;;13.90;79.80;;;;;;5037254;28;20342;-59
2021/03/02 17:17:16;;;;;;;;;;;13.80;80.30;;;;;;5077745;22;19929;-64
2021/03/02 17:19:42;;;;;;;;;;;13.70;81.90;;;;;;5040183;28;19925;-62
2021/03/02 17:22:08;;;;;;;;;;;13.60;81.00;;;;;;5038786;28;19925;-62
2021/03/02 17:24:35;;;;;;;;;;;13.50;81.50;;;;;;5037318;28;19925;-61
2021/03/02 17:27:01;;;;;;;;;;;13.40;81.50;;;;;;5036935;28;19936;-63
2021/03/02 17:29:28;;;;;;;;;;;13.30;81.90;;;;;;5037913;28;19925;-63
2021/03/02 17:31:54;;;;;;;;;;;13.10;82.70;;;;;;5039183;28;20264;-62
2021/03/02 17:34:20;;;;;;;;;;;13.00;82.50;;;;;;5039035;28;20283;-62
2021/03/02 17:36:46;;;;;;;;;;;13.00;82.90;;;;;;5038761;28;20346;-63
2021/03/02 17:39:12;;;;;;;;;;;12.90;83.50;;;;;;5039604;28;20292;-62
2021/03/02 17:41:38;;;;;;;;;;;12.80;84.30;;;;;;5042035;28;19925;-63
2021/03/02 17:44:05;;;;;;;;;;;12.70;85.40;;;;;;5038730;28;20399;-61
2021/03/02 17:46:31;;;;;;;;;;;12.60;85.10;;;;;;5036575;28;19929;-61
2021/03/02 17:48:57;;;;;;;;;;;12.50;85.60;;;;;;5036626;28;19925;-61
2021/03/02 17:51:24;;;;;;;;;;;12.50;86.20;;;;;;5036476;28;19929;-61
2021/03/02 17:53:50;;;;;;;;;;;12.40;86.90;;;;;;5036823;28;20057;-63
2021/03/02 17:56:16;;;;;;;;;;;12.30;87.20;;;;;;5036548;28;19932;-61
2021/03/02 17:58:42;;;;;;;;;;;12.30;88.10;;;;;;5036527;28;19948;-62
2021/03/02 18:01:08;;;;;;;;;;;12.20;88.40;;;;;;5036562;28;19925;-62
2021/03/02 18:03:35;;;;;;;;;;;12.20;89.60;;;;;;5037331;28;19925;-63
2021/03/02 18:06:01;;;;;;;;;;;12.10;89.80;;;;;;5036221;28;19929;-62
2021/03/02 18:08:27;;;;;;;;;;;12.00;90.20;;;;;;5036102;28;19995;-62
2021/03/02 18:10:53;;;;;;;;;;;12.00;90.70;;;;;;5036318;28;20287;-62
2021/03/02 18:13:19;;;;;;;;;;;12.00;91.10;;;;;;5035873;28;20398;-63
2021/03/02 18:15:45;;;;;;;;;;;11.90;91.20;;;;;;5035716;28;19937;-62
2021/03/02 18:18:11;;;;;;;;;;;11.90;91.50;;;;;;5036180;28;19929;-61
2021/03/02 18:20:38;;;;;;;;;;;11.90;91.60;;;;;;5042493;28;20450;-62
2021/03/02 18:23:04;;;;;;;;;;;11.90;92.00;;;;;;5041962;28;19925;-63
2021/03/02 18:25:30;;;;;;;;;;;11.90;92.00;;;;;;5036126;28;20403;-62
2021/03/02 18:27:57;;;;;;;;;;;11.90;92.20;;;;;;5036383;28;19925;-64
2021/03/02 18:30:23;;;;;;;;;;;11.80;92.10;;;;;;5035595;28;19925;-62
2021/03/02 18:32:49;;;;;;;;;;;11.90;92.20;;;;;;5035868;28;19929;-62
2021/03/02 18:35:15;;;;;;;;;;;11.80;92.40;;;;;;5035716;28;19987;-62
2021/03/02 18:37:42;;;;;;;;;;;11.80;92.70;;;;;;5035907;28;19925;-62
2021/03/02 18:40:09;;;;;;;;;;;11.80;92.70;;;;;;5036183;28;19932;-64
2021/03/02 18:42:35;;;;;;;;;;;11.80;92.90;;;;;;5035364;28;19925;-63
2021/03/02 18:45:02;;;;;;;;;;;11.70;93.10;;;;;;5034595;28;22252;-63
2021/03/02 18:47:28;;;;;;;;;;;11.70;93.30;;;;;;5035528;28;19936;-62
2021/03/02 18:49:54;;;;;;;;;;;11.70;93.50;;;;;;5034983;28;19932;-64
2021/03/02 18:52:20;;;;;;;;;;;11.60;93.60;;;;;;5036227;28;19935;-64
2021/03/02 18:54:47;;;;;;;;;;;11.60;93.80;;;;;;5037148;28;19987;-64
2021/03/02 18:57:13;;;;;;;;;;;11.50;94.10;;;;;;5037228;28;19925;-63
2021/03/02 18:59:39;;;;;;;;;;;11.60;94.50;;;;;;5037506;28;19932;-64
2021/03/02 19:02:06;;;;;;;;;;;11.50;94.70;;;;;;5036354;28;19925;-64
2021/03/02 19:04:32;;;;;;;;;;;11.50;95.00;;;;;;5035836;28;19925;-63
2021/03/02 19:06:58;;;;;;;;;;;11.40;95.30;;;;;;5036392;28;19925;-64
2021/03/02 19:09:24;;;;;;;;;;;11.40;95.60;;;;;;5035466;28;19925;-63
2021/03/02 19:11:51;;;;;;;;;;;11.30;95.80;;;;;;5035811;28;19932;-64
2021/03/02 19:14:17;;;;;;;;;;;11.30;96.20;;;;;;5035547;28;19936;-62
2021/03/02 19:16:43;;;;;;;;;;;11.30;96.30;;;;;;5035109;28;19925;-62
2021/03/02 19:19:09;;;;;;;;;;;11.20;96.80;;;;;;5035207;28;19991;-62